Ketchikan International Airport Ketchikan US
ICAO: PAKT
IATA: KTN
Category: Medium
Scheduled Services:

Elevation: 89 ft
TransAlt. 18000 ft.

Airport Communications:
ATIS:119.9
ANCHORAGE CNTR:118.5
CTAF:123.6
RDO:123.6
UNICOM:122.95

PAKT Zoom In..

Runways:

(A) RW 11 length 7500 ft width 150 ft
ILS 109.30 / hdg 115

(B) RW 29 length 7500 ft width 150 ft
---- / hdg 295

Location; PAKT
Day. 21 / Time. 23.53 Zulu
* Altimeter: 29.42
* Temperature: 03° c. 37.4°f.
* Wind from: PAK° Speed T kn.
Dewpoint: 02° c.
Visibility: 10 Statute Miles.
Clouds: Broken 6000 ft.

PAKT 212353Z 18004KT 10SM BKN060 03/02 A2942 RMK AO2 SLP964 HARBOR WND 15005KT T00330017 10033 21006 51020 $


Wind From PAK°
Speed T kn.

jpsM music video
CHECK IT OUT

jpsM - It Moves..

 
jpsmedia.com for Web Design  worldairports.se 2018   terms of use